Time;durP1;ratioP1;P1;durP2;ratioP2;P2;SDS_P1;SDS_P2;PMS_P1;PMS_P2;Temp;Humidity;BMP_temperature;BMP_pressure;BME280_temperature;BME280_humidity;BME280_pressure;Samples;Min_cycle;Max_cycle;Signal;HPM_P1;HPM_P2
2023/09/08 00:02:16;;;;;;;9.38;6.22;;;13.50;99.90;;;-144.05;80.51;56855.22;4976827;28;20042;-79
2023/09/08 00:04:42;;;;;;;13.25;6.63;;;17.20;99.90;;;-144.05;80.72;56853.09;4976548;28;20032;-84
2023/09/08 00:07:08;;;;;;;11.95;6.68;;;15.90;99.90;;;-144.05;80.84;56844.59;4977172;28;20034;-83
2023/09/08 00:09:34;;;;;;;10.02;6.35;;;;;;;-144.05;80.91;56823.34;4975293;28;20495;-79
2023/09/08 00:12:01;;;;;;;8.23;6.07;;;16.60;99.90;;;-144.05;81.05;56833.97;4976105;28;20489;-80
2023/09/08 00:14:27;;;;;;;10.98;6.65;;;;;;;-144.05;81.13;56827.59;4976281;28;20026;-80
2023/09/08 00:16:56;;;;;;;8.98;6.43;;;13.20;99.90;;;-144.05;81.15;56840.34;4976460;28;20495;-83
2023/09/08 00:19:23;;;;;;;15.43;6.35;;;13.10;99.90;;;-144.05;80.94;56867.94;4974924;28;20089;-80
2023/09/08 00:21:49;;;;;;;9.45;6.07;;;13.30;99.90;;;-144.05;81.07;56848.84;4976256;28;20505;-83
2023/09/08 00:24:15;;;;;;;8.48;5.93;;;17.10;99.90;;;-144.05;80.99;56882.81;4974889;28;20034;-83
2023/09/08 00:26:41;;;;;;;10.35;6.45;;;16.80;99.90;;;-144.05;81.21;56865.81;4974353;28;20082;-83
2023/09/08 00:29:07;;;;;;;8.02;5.53;;;;;;;-144.05;81.30;56857.34;4975833;28;20023;-82
2023/09/08 00:31:33;;;;;;;10.07;6.85;;;16.20;99.90;;;-144.05;81.40;56840.34;4975768;28;20089;-84
2023/09/08 00:33:59;;;;;;;10.35;6.07;;;16.90;99.90;;;-144.05;81.37;56876.44;4975942;28;20038;-82
2023/09/08 00:36:25;;;;;;;10.23;6.57;;;;;;;-144.05;81.54;56825.47;4976141;28;20432;-83
2023/09/08 00:38:51;;;;;;;9.57;6.22;;;;;;;-144.05;81.69;56857.34;4975920;28;20387;-83
2023/09/08 00:41:17;;;;;;;11.93;6.70;;;12.30;99.90;;;-144.05;81.83;56870.06;4976332;28;20035;-82
2023/09/08 00:43:43;;;;;;;9.57;6.88;;;16.60;99.90;;;-144.05;82.17;56865.81;4974409;28;20127;-82
2023/09/08 00:46:10;;;;;;;13.57;6.53;;;16.40;99.90;;;-144.05;82.42;56829.72;4975818;28;20544;-83
2023/09/08 00:48:37;;;;;;;9.63;6.03;;;15.90;99.90;;;-144.05;82.16;56876.44;4976078;28;20435;-83
2023/09/08 00:51:07;;;;;;;9.20;5.78;;;;;;;-144.05;82.69;56833.97;4975952;28;20034;-83
2023/09/08 00:53:33;;;;;;;7.78;5.60;;;16.60;99.90;;;-144.05;82.81;56872.19;4975995;28;20031;-81
2023/09/08 00:56:00;;;;;;;7.70;5.30;;;15.10;99.90;;;-144.05;82.69;56840.34;4975746;28;20035;-85
2023/09/08 00:58:26;;;;;;;9.73;6.28;;;16.10;99.90;;;-144.05;82.90;56846.72;4974815;28;20081;-81
2023/09/08 01:00:52;;;;;;;9.00;5.78;;;12.50;99.90;;;-144.05;82.84;56872.19;4981475;28;20034;-82
2023/09/08 01:03:18;;;;;;;10.70;6.40;;;12.60;99.90;;;-144.05;83.11;56870.06;4995676;28;20027;-82
2023/09/08 01:05:46;;;;;;;11.15;6.65;;;12.40;99.90;;;-144.05;83.19;56880.69;4995271;28;20398;-82
2023/09/08 01:08:14;;;;;;;9.05;7.03;;;16.10;99.90;;;-144.05;83.25;56848.84;5011756;28;20066;-79
2023/09/08 01:10:42;;;;;;;10.68;6.70;;;16.20;99.90;;;-144.05;83.47;56848.84;5013468;28;20027;-79
2023/09/08 01:13:08;;;;;;;11.35;6.57;;;16.20;99.90;;;-144.05;83.49;56844.59;5013335;28;20030;-79
2023/09/08 01:15:34;;;;;;;9.18;6.28;;;15.80;99.90;;;-144.05;83.70;56855.22;5011223;28;20026;-82
2023/09/08 01:17:59;;;;;;;6.80;5.60;;;16.10;99.90;;;-144.05;83.69;56857.34;4996718;28;20066;-80
2023/09/08 01:21:29;;;;;;;8.13;5.53;;;16.10;99.90;;;-144.05;83.62;56867.94;4993167;28;20026;-80
2023/09/08 01:25:12;;;;;;;6.85;5.50;;;15.00;99.90;;;-144.05;83.82;56878.56;4984491;28;20042;-81
2023/09/08 01:27:52;;;;;;;8.93;6.50;;;16.10;99.90;;;-144.05;83.65;56863.69;4911572;29;20095;-80
2023/09/08 01:30:21;;;;;;;9.27;6.72;;;12.00;99.90;;;-144.05;83.49;56874.31;4914838;29;20032;-80
2023/09/08 01:32:48;;;;;;;11.60;7.20;;;16.20;99.90;;;-144.05;83.65;56895.56;4965873;28;20074;-82
2023/09/08 01:35:15;;;;;;;9.40;6.57;;;12.40;99.90;;;-144.05;83.62;56853.09;4976829;28;20076;-80
2023/09/08 01:37:49;;;;;;;9.25;6.43;;;12.00;99.90;;;-144.05;83.72;56857.34;4994230;28;20026;-82
2023/09/08 01:40:16;;;;;;;15.38;7.65;;;16.00;99.90;;;-144.05;84.04;56882.81;4993089;28;20027;-81
2023/09/08 01:42:42;;;;;;;8.43;6.68;;;15.80;99.90;;;-144.05;83.97;56857.34;4994522;28;20081;-79
2023/09/08 01:45:08;;;;;;;8.75;6.82;;;16.10;99.90;;;-144.05;84.31;56857.34;4976726;28;20026;-80
2023/09/08 01:47:37;;;;;;;7.82;6.32;;;;;;;-144.05;86.30;56838.22;4993683;28;20026;-80
2023/09/08 01:50:03;;;;;;;9.40;6.82;;;16.00;99.90;;;-144.05;87.11;56846.72;4975973;28;20034;-80
2023/09/08 01:52:30;;;;;;;9.35;6.47;;;;;;;-144.05;87.38;56867.94;5031067;23;20076;-86
2023/09/08 01:54:56;;;;;;;9.30;6.82;;;;;;;-144.05;87.60;56861.56;5013002;28;20034;-85
2023/09/08 01:57:22;;;;;;;8.80;6.13;;;;;;;-144.05;87.97;56855.22;4995588;28;20021;-81
2023/09/08 01:59:48;;;;;;;9.30;6.45;;;16.10;99.90;;;-144.05;87.91;56857.34;4995091;28;20022;-84
2023/09/08 02:02:14;;;;;;;8.35;6.25;;;15.90;99.90;;;-144.05;87.95;56872.19;5020337;28;20044;-84
2023/09/08 02:04:41;;;;;;;7.93;6.32;;;;;;;-144.05;88.03;56855.22;5015903;28;20262;-82
2023/09/08 02:07:07;;;;;;;16.27;7.60;;;12.30;99.90;;;-144.05;88.09;56853.09;5011650;28;20034;-84
2023/09/08 02:09:36;;;;;;;7.72;6.40;;;14.60;99.90;;;-144.05;88.17;56844.59;4994548;28;20041;-82
2023/09/08 02:12:04;;;;;;;10.10;7.35;;;15.50;99.90;;;-144.05;88.21;56865.81;4994876;28;20069;-85
2023/09/08 02:14:30;;;;;;;11.98;8.25;;;;;;;-144.05;88.08;56863.69;4994838;28;20037;-84
2023/09/08 02:16:57;;;;;;;12.23;7.47;;;14.60;99.90;;;-144.05;88.35;56872.19;4994812;28;20053;-84
2023/09/08 02:19:23;;;;;;;12.63;8.00;;;15.70;99.90;;;-144.05;88.50;56848.84;4994676;28;20524;-83
2023/09/08 02:21:49;;;;;;;10.40;7.10;;;16.00;99.90;;;-144.05;88.74;56863.69;4994622;28;20080;-82
2023/09/08 02:24:15;;;;;;;8.45;6.78;;;;;;;-144.05;88.50;56836.09;4994912;28;20539;-84
2023/09/08 02:26:42;;;;;;;9.38;7.07;;;15.60;99.90;;;-144.05;88.73;56846.72;5011048;28;20033;-84
2023/09/08 02:29:08;;;;;;;11.82;6.75;;;15.90;99.90;;;-144.05;88.89;56878.56;4994368;28;20100;-84
2023/09/08 02:31:34;;;;;;;10.40;7.50;;;15.80;99.90;;;-144.05;88.98;56846.72;5011110;28;20124;-84
2023/09/08 02:34:00;;;;;;;10.45;7.68;;;;;;;-144.05;89.17;56859.47;5012126;28;20052;-85
2023/09/08 02:36:27;;;;;;;9.20;7.28;;;;;;;-144.05;89.13;56863.69;5012270;28;20034;-84
2023/09/08 02:38:55;;;;;;;9.38;7.40;;;15.40;99.90;;;-144.05;89.14;56857.34;5010804;28;20036;-82
2023/09/08 02:41:22;;;;;;;9.88;7.15;;;;;;;-144.05;89.26;56859.47;5012064;28;20037;-82
2023/09/08 02:43:48;;;;;;;12.85;7.85;;;12.00;99.90;;;-144.05;89.23;56867.94;4995086;28;20542;-86
2023/09/08 02:46:15;;;;;;;11.38;7.43;;;16.00;99.90;;;-144.05;89.28;56865.81;4995493;28;20045;-84
2023/09/08 02:48:41;;;;;;;9.38;6.55;;;;;;;-144.05;89.28;56848.84;4994489;28;20026;-86
2023/09/08 02:51:08;;;;;;;14.05;8.18;;;;;;;-144.05;89.34;56861.56;5010657;28;20034;-83
2023/09/08 02:53:34;;;;;;;15.63;8.73;;;;;;;-144.05;89.43;56855.22;5012280;28;20030;-84
2023/09/08 02:56:00;;;;;;;10.88;6.47;;;;;;;-144.05;89.43;56861.56;5010991;28;20112;-84
2023/09/08 02:58:27;;;;;;;12.02;8.13;;;11.70;99.90;;;-144.05;89.90;56846.72;5010579;28;20045;-85
2023/09/08 03:00:53;;;;;;;12.07;7.47;;;15.20;99.90;;;-144.05;89.52;56855.22;4994160;28;20022;-86
2023/09/08 03:03:20;;;;;;;9.40;6.93;;;;;;;-144.05;89.74;56844.59;5012034;28;20038;-85
2023/09/08 03:05:46;;;;;;;9.48;7.18;;;;;;;-144.05;89.91;56831.84;5010559;28;20077;-83
2023/09/08 03:08:13;;;;;;;10.02;7.55;;;;;;;-144.05;88.38;56855.22;4994460;28;20116;-83
2023/09/08 03:10:40;;;;;;;11.13;7.60;;;15.60;99.90;;;-144.05;87.58;56861.56;5011292;28;20030;-84
2023/09/08 03:13:06;;;;;;;11.40;7.85;;;15.60;99.90;;;-144.05;89.11;56838.22;4994155;28;20075;-84
2023/09/08 03:15:34;;;;;;;12.80;8.05;;;16.00;99.90;;;-144.05;89.48;56853.09;5011645;28;20018;-84
2023/09/08 03:18:01;;;;;;;12.57;8.05;;;;;;;-144.05;88.96;56857.34;4994150;28;20022;-84
2023/09/08 03:20:28;;;;;;;11.50;7.80;;;12.20;99.90;;;-144.05;87.53;56855.22;5010571;28;20026;-84
2023/09/08 03:22:55;;;;;;;9.25;7.32;;;;;;;-144.05;87.18;56855.22;4994067;28;20026;-83
2023/09/08 03:25:21;;;;;;;8.43;7.30;;;12.10;99.90;;;-144.05;87.15;56857.34;4993988;28;20346;-82
2023/09/08 03:27:47;;;;;;;8.85;6.75;;;;;;;-144.05;87.14;56874.31;4995475;28;20030;-83
2023/09/08 03:30:13;;;;;;;9.63;7.28;;;11.80;99.90;;;-144.05;87.18;56891.31;4993973;28;20497;-84
2023/09/08 03:32:39;;;;;;;10.23;7.20;;;11.60;99.90;;;-144.05;87.02;56846.72;5011376;28;20030;-85
2023/09/08 03:35:07;;;;;;;10.55;7.00;;;15.30;99.90;;;-144.05;87.11;56836.09;4993985;28;20080;-85
2023/09/08 03:37:36;;;;;;;8.30;6.80;;;11.70;99.90;;;-144.05;87.10;56844.59;4994053;28;20037;-84
2023/09/08 03:40:06;;;;;;;9.88;7.72;;;14.00;99.90;;;-144.05;86.97;56859.47;5013097;28;20336;-87
2023/09/08 03:42:32;;;;;;;9.10;7.70;;;11.60;99.90;;;-144.05;87.23;56842.47;4995271;28;20038;-83
2023/09/08 03:44:58;;;;;;;10.13;7.70;;;15.00;99.90;;;-144.05;87.31;56870.06;5013427;28;20018;-82
2023/09/08 03:47:24;;;;;;;9.43;7.05;;;15.60;99.90;;;-144.05;87.23;56872.19;4997678;28;20403;-86
2023/09/08 03:49:50;;;;;;;9.82;7.43;;;;;;;-144.05;87.17;56904.06;5015251;28;20057;-84
2023/09/08 03:52:16;;;;;;;12.25;7.95;;;15.40;99.90;;;-144.05;87.02;56863.69;4997819;28;20099;-85
2023/09/08 03:54:42;;;;;;;10.45;7.47;;;15.80;99.90;;;-144.05;87.10;56863.69;4997587;28;20224;-84
2023/09/08 03:57:08;;;;;;;12.88;7.47;;;15.60;99.90;;;-144.05;87.10;56882.81;4997310;28;20045;-84
2023/09/08 03:59:33;;;;;;;12.57;8.30;;;15.50;99.90;;;-144.05;86.96;56844.59;4997334;28;20100;-85
2023/09/08 04:02:01;;;;;;;13.18;8.50;;;;;;;-144.05;86.67;56842.47;4997078;28;20030;-84
2023/09/08 04:04:26;;;;;;;12.68;7.90;;;15.40;99.90;;;-144.05;86.88;56857.34;5013419;28;20478;-83
2023/09/08 04:06:53;;;;;;;10.13;7.45;;;;;;;-144.05;86.72;56842.47;5014914;28;20101;-84
2023/09/08 04:09:19;;;;;;;12.45;7.63;;;;;;;-144.05;87.68;56861.56;5013416;28;20030;-83
2023/09/08 04:11:45;;;;;;;11.65;7.50;;;;;;;-144.05;88.96;56870.06;5013024;28;20037;-81
2023/09/08 04:14:11;;;;;;;10.40;8.05;;;15.40;99.90;;;-144.05;88.42;56867.94;4997231;28;20101;-84
2023/09/08 04:16:37;;;;;;;11.43;8.05;;;13.80;99.90;;;-144.05;87.37;56857.34;5014960;28;20105;-82
2023/09/08 04:19:04;;;;;;;9.77;7.18;;;16.10;99.90;;;-144.05;87.32;56836.09;4997702;28;20417;-82
2023/09/08 04:21:30;;;;;;;9.75;7.95;;;15.80;99.90;;;-144.05;87.57;56891.31;4996914;28;20091;-84
2023/09/08 04:23:56;;;;;;;10.32;7.28;;;;;;;-144.05;88.21;56867.94;4997067;28;20092;-84
2023/09/08 04:26:21;;;;;;;9.48;7.13;;;15.70;99.90;;;-144.05;87.57;56848.84;5013219;28;20136;-81
2023/09/08 04:28:48;;;;;;;12.40;8.50;;;;;;;-144.05;88.43;56850.97;4997096;28;20400;-84
2023/09/08 04:31:13;;;;;;;10.45;8.32;;;11.30;99.90;;;-144.05;87.93;56850.97;5013181;28;20030;-83
2023/09/08 04:33:39;;;;;;;14.68;8.77;;;11.30;99.90;;;-144.05;87.52;56848.84;4996868;28;20500;-83
2023/09/08 04:36:05;;;;;;;13.60;8.45;;;15.70;99.90;;;-144.05;89.02;56867.94;4996996;28;20092;-84
2023/09/08 04:38:31;;;;;;;10.82;7.70;;;15.70;99.90;;;-144.05;89.56;56850.97;4997101;28;20191;-84
2023/09/08 04:40:57;;;;;;;12.15;8.00;;;15.50;99.90;;;-144.05;89.94;56865.81;4996510;28;20042;-84
2023/09/08 04:43:23;;;;;;;13.98;8.52;;;15.90;99.90;;;-144.05;89.91;56876.44;4996556;28;20030;-83
2023/09/08 04:45:50;;;;;;;16.55;8.77;;;;;;;-144.05;90.12;56884.94;4996601;28;20026;-84
2023/09/08 04:48:16;;;;;;;12.98;8.18;;;;;;;-144.05;90.02;56861.56;4999387;28;20117;-84
2023/09/08 04:50:42;;;;;;;10.48;7.65;;;15.60;99.90;;;-144.05;90.17;56859.47;5015840;28;20038;-85
2023/09/08 04:53:08;;;;;;;10.60;8.38;;;15.80;99.90;;;-144.05;90.23;56857.34;4999831;28;20508;-84
2023/09/08 04:55:34;;;;;;;9.52;7.68;;;13.80;99.90;;;-144.05;90.41;56878.56;4998847;28;20030;-84
2023/09/08 04:58:00;;;;;;;12.25;7.75;;;;;;;-144.05;90.35;56865.81;4999110;28;20080;-85
2023/09/08 05:00:26;;;;;;;11.18;7.63;;;15.40;99.90;;;-144.05;88.50;56874.31;5015866;28;20104;-80
2023/09/08 05:02:52;;;;;;;11.40;7.93;;;;;;;-144.05;88.10;56880.69;4999555;28;20034;-84
2023/09/08 05:05:18;;;;;;;11.07;7.95;;;;;;;-144.05;87.87;56833.97;4999817;28;20109;-81
2023/09/08 05:07:45;;;;;;;13.13;8.65;;;15.70;99.90;;;-144.05;87.83;56842.47;5017690;28;20025;-84
2023/09/08 05:10:11;;;;;;;10.75;8.20;;;11.30;99.90;;;-144.05;87.75;56840.34;4999213;28;20567;-84
2023/09/08 05:12:37;;;;;;;10.95;7.90;;;11.10;99.90;;;-144.05;87.58;56904.06;4999476;28;20030;-83
2023/09/08 05:15:10;;;;;;;10.32;8.02;;;11.10;99.90;;;-144.05;88.17;56870.06;4999391;28;20036;-84
2023/09/08 05:17:35;;;;;;;9.05;7.18;;;13.70;99.90;;;-144.05;89.82;56859.47;4999688;28;20050;-84
2023/09/08 05:20:03;;;;;;;11.27;8.15;;;15.70;99.90;;;-144.05;89.94;56844.59;5018779;28;20045;-86
2023/09/08 05:22:29;;;;;;;18.52;9.13;;;;;;;-144.05;90.46;56870.06;5018462;28;20033;-86
2023/09/08 05:24:56;;;;;;;11.52;8.20;;;;;;;-144.05;88.34;56836.09;5017293;28;20405;-84
2023/09/08 05:27:22;;;;;;;13.00;9.32;;;15.50;99.90;;;-144.05;88.23;56878.56;4997779;28;20116;-84
2023/09/08 05:29:48;;;;;;;14.98;8.18;;;;;;;-144.05;88.00;56846.72;4998729;28;20493;-87
2023/09/08 05:32:14;;;;;;;12.93;8.48;;;13.60;99.90;;;-144.05;87.88;56893.44;4999715;28;20037;-84
2023/09/08 05:34:40;;;;;;;12.13;7.95;;;15.40;99.90;;;-144.05;87.35;56848.84;5017432;28;20141;-83
2023/09/08 05:37:06;;;;;;;12.18;8.23;;;;;;;-144.05;86.88;56857.34;4999293;28;20030;-87
2023/09/08 05:39:32;;;;;;;10.88;7.82;;;15.80;99.90;;;-144.05;86.62;56889.19;5000007;28;20485;-84
2023/09/08 05:41:58;;;;;;;12.30;8.27;;;;;;;-144.05;86.14;56850.97;5016169;28;20120;-84
2023/09/08 05:44:25;;;;;;;10.93;7.63;;;;;;;-144.05;86.28;56859.47;4999211;28;20030;-82
2023/09/08 05:46:51;;;;;;;11.98;7.70;;;;;;;-144.05;86.53;56853.09;5017010;28;20036;-84
2023/09/08 05:49:17;;;;;;;14.02;8.13;;;16.60;99.90;;;-144.05;85.93;56887.06;5015174;28;20029;-82
2023/09/08 05:51:44;;;;;;;15.70;7.88;;;;;;;-144.05;85.52;56889.19;4998601;28;20041;-87
2023/09/08 05:54:10;;;;;;;12.45;6.90;;;14.40;99.90;;;-144.05;84.02;56882.81;5014392;28;20552;-86
2023/09/08 05:56:38;;;;;;;9.07;7.05;;;17.70;99.90;;;-144.05;82.64;56878.56;4997903;28;20037;-86
2023/09/08 05:59:04;;;;;;;11.52;6.97;;;18.10;99.90;;;-144.05;80.25;56891.31;5017439;28;20026;-85
2023/09/08 06:01:33;;;;;;;9.75;6.38;;;14.50;99.90;;;-144.05;78.03;56872.19;4999092;28;20104;-83
2023/09/08 06:03:59;;;;;;;7.97;5.70;;;;;;;-144.05;73.90;56889.19;5016466;28;20090;-77
2023/09/08 06:06:26;;;;;;;9.18;5.57;;;15.60;99.90;;;-144.05;72.70;56882.81;5022126;28;20037;-74
2023/09/08 06:08:51;;;;;;;6.72;5.15;;;17.70;99.90;;;-144.05;72.90;56867.94;5018037;28;20400;-84
2023/09/08 06:11:17;;;;;;;9.82;5.28;;;19.30;99.90;;;-144.05;70.59;56910.44;4996767;28;20033;-83
2023/09/08 06:13:43;;;;;;;6.95;4.97;;;;;;;-144.05;68.35;56889.19;5014611;28;20037;-83
2023/09/08 06:16:10;;;;;;;7.55;4.70;;;;;;;-144.05;66.51;56891.31;5014374;28;20030;-82
2023/09/08 06:18:40;;;;;;;9.48;4.47;;;19.90;99.90;;;-144.05;65.29;56895.56;5013165;28;20345;-80
2023/09/08 06:21:09;;;;;;;7.70;4.97;;;19.50;99.90;;;-144.05;63.65;56916.81;4997287;28;20034;-81
2023/09/08 06:23:35;;;;;;;6.45;4.75;;;20.70;99.90;;;-144.05;62.54;56938.03;5014392;28;20037;-84
2023/09/08 06:26:02;;;;;;;6.75;4.53;;;;;;;-144.05;61.72;56923.19;4998952;28;20112;-84
2023/09/08 06:28:28;;;;;;;4.95;4.22;;;;;;;-144.05;60.89;56927.41;5013887;28;20416;-82
2023/09/08 06:30:55;;;;;;;6.55;4.80;;;21.50;99.90;;;-144.05;59.92;56918.94;5015334;28;20108;-83
2023/09/08 06:33:24;;;;;;;9.05;5.00;;;22.00;99.90;;;-144.05;58.78;56916.81;4997268;28;20028;-85
2023/09/08 06:35:51;;;;;;;5.97;4.43;;;;;;;-144.05;57.37;56938.03;5015299;28;20539;-83
2023/09/08 06:38:17;;;;;;;8.40;4.90;;;;;;;-144.05;56.23;56969.91;5014035;28;20034;-86
2023/09/08 06:40:43;;;;;;;8.95;4.75;;;;;;;-144.05;55.31;56980.53;5015049;28;20405;-84
2023/09/08 06:43:09;;;;;;;5.40;4.25;;;;;;;-144.05;55.52;56935.91;5015198;28;20026;-85
2023/09/08 06:45:39;;;;;;;9.43;4.50;;;19.60;99.90;;;-144.05;55.45;56967.78;5014075;28;20029;-85
2023/09/08 06:48:06;;;;;;;6.65;4.70;;;23.00;99.90;;;-144.05;55.55;56935.91;5013745;28;20040;-85
2023/09/08 06:50:32;;;;;;;7.10;4.80;;;23.00;99.90;;;-144.05;55.36;56948.66;4996872;28;20025;-85
2023/09/08 06:52:57;;;;;;;6.13;4.88;;;23.50;99.90;;;-144.05;56.15;56972.03;4996574;28;20485;-86
2023/09/08 06:55:23;;;;;;;6.75;5.40;;;23.70;99.90;;;-144.05;56.32;56946.53;5014837;28;20037;-83
2023/09/08 06:57:49;;;;;;;8.35;4.68;;;23.50;99.90;;;-144.05;56.69;56995.38;5012689;28;20026;-84
2023/09/08 07:00:17;;;;;;;8.68;4.40;;;24.20;99.90;;;-144.05;56.31;56974.16;4997221;28;20037;-84
2023/09/08 07:02:43;;;;;;;7.75;4.50;;;20.40;99.90;;;-144.05;55.63;56963.53;4997759;28;20026;-85
2023/09/08 07:05:09;;;;;;;7.63;4.55;;;24.50;99.90;;;-144.05;55.26;56980.53;5002287;28;20025;-85
2023/09/08 07:07:35;;;;;;;9.07;4.53;;;21.00;99.90;;;-144.05;54.22;56978.41;4997796;28;20057;-83
2023/09/08 07:10:06;;;;;;;13.85;4.60;;;23.10;99.90;;;-144.05;52.87;56969.91;5013721;28;20034;-84
2023/09/08 07:12:32;;;;;;;7.28;4.80;;;24.70;99.90;;;-144.05;52.91;56961.41;4995699;28;20469;-82
2023/09/08 07:14:59;;;;;;;9.38;4.63;;;21.20;99.90;;;-144.05;51.88;57003.88;4995761;28;20042;-86
2023/09/08 07:17:26;;;;;;;11.90;4.90;;;;;;;-144.05;51.42;56978.41;5013353;28;20030;-83
2023/09/08 07:19:52;;;;;;;9.43;4.40;;;24.60;99.90;;;-144.05;51.53;56984.78;5016293;28;20041;-74
2023/09/08 07:22:18;;;;;;;7.65;4.13;;;21.10;99.90;;;-144.05;50.96;56991.13;4998687;28;20124;-83
2023/09/08 07:24:45;;;;;;;9.23;4.78;;;21.00;99.90;;;-144.05;50.08;56999.63;4998995;28;20076;-84
2023/09/08 07:27:14;;;;;;;8.13;4.63;;;21.20;99.90;;;-144.05;48.76;56989.00;5017170;28;20401;-85
2023/09/08 07:29:41;;;;;;;9.52;4.93;;;25.40;99.90;;;-144.05;48.19;56982.66;5015408;28;20032;-83
2023/09/08 07:32:08;;;;;;;8.88;4.72;;;25.40;99.90;;;-144.05;47.69;57010.25;5016351;28;20097;-83
2023/09/08 07:34:34;;;;;;;7.13;4.25;;;21.70;99.90;;;-144.05;47.07;57006.00;5015487;28;20029;-82
2023/09/08 07:37:01;;;;;;;7.13;4.45;;;25.80;99.90;;;-144.05;46.09;56999.63;4999656;28;20026;-84
2023/09/08 07:39:27;;;;;;;8.27;4.43;;;25.20;99.90;;;-144.05;45.43;56986.91;4998677;28;20030;-85
2023/09/08 07:41:53;;;;;;;9.15;5.03;;;25.40;99.90;;;-144.05;46.57;57012.38;5015689;28;20551;-83
2023/09/08 07:44:19;;;;;;;12.50;4.45;;;25.80;99.90;;;-144.05;45.62;57029.38;5016601;28;20029;-83
2023/09/08 07:46:48;;;;;;;9.90;4.70;;;;;;;-144.05;45.50;57048.50;5015395;28;20405;-83
2023/09/08 07:49:15;;;;;;;13.00;5.60;;;;;;;-144.05;44.68;57065.47;4999444;28;20026;-83
2023/09/08 07:51:41;;;;;;;8.45;4.38;;;;;;;-144.05;44.27;57027.25;5017302;23;20108;-81
2023/09/08 07:54:07;;;;;;;7.35;4.72;;;27.00;99.90;;;-144.05;43.07;57027.25;4997813;28;20109;-79
2023/09/08 07:56:32;;;;;;;7.60;4.35;;;22.70;99.90;;;-144.05;42.61;57020.88;4996358;28;20042;-79
2023/09/08 07:58:58;;;;;;;6.05;3.95;;;26.90;99.90;;;-144.05;42.14;57063.34;4995809;28;20030;-80
2023/09/08 08:01:24;;;;;;;12.45;4.40;;;23.40;99.90;;;-144.05;41.64;57078.22;4995565;28;20050;-79
2023/09/08 08:03:50;;;;;;;6.25;4.22;;;23.50;99.90;;;-144.05;41.60;57073.97;4997110;28;20030;-79
2023/09/08 08:06:17;;;;;;;7.32;4.18;;;23.80;99.90;;;-144.05;41.25;57050.63;4980788;28;20211;-79
2023/09/08 08:08:43;;;;;;;8.65;4.45;;;28.00;99.90;;;-144.05;40.96;57061.22;4996846;28;20484;-80
2023/09/08 08:11:15;;;;;;;5.88;3.90;;;24.20;99.90;;;-144.05;39.98;57082.47;4995863;28;20062;-78
2023/09/08 08:13:41;;;;;;;7.68;4.43;;;24.10;99.90;;;-144.05;40.68;57103.72;4995921;28;20032;-81
2023/09/08 08:16:07;;;;;;;13.48;4.82;;;25.30;99.90;;;-144.05;39.98;57095.22;4994656;28;20113;-78
2023/09/08 08:18:33;;;;;;;5.07;4.07;;;24.20;99.90;;;-144.05;40.47;57082.47;4994327;28;20489;-78
2023/09/08 08:21:00;;;;;;;6.07;4.57;;;28.20;99.90;;;-144.05;39.98;57097.34;4996202;28;20041;-79
2023/09/08 08:23:26;;;;;;;5.65;3.67;;;;;;;-144.05;39.75;57078.22;4995638;28;20085;-78
2023/09/08 08:25:52;;;;;;;8.02;4.03;;;28.10;99.90;;;-144.05;39.82;57110.09;4978520;28;20026;-78
2023/09/08 08:28:18;;;;;;;6.20;4.07;;;28.60;99.90;;;-144.05;39.51;57107.97;4994598;28;20044;-80
2023/09/08 08:30:44;;;;;;;9.07;4.10;;;28.90;99.90;;;-144.05;39.08;57144.06;4994279;28;20240;-80
2023/09/08 08:33:10;;;;;;;5.75;3.30;;;25.10;99.90;;;-144.05;38.37;57161.06;4995800;28;20062;-80
2023/09/08 08:35:36;;;;;;;6.10;3.92;;;29.10;99.90;;;-144.05;37.80;57137.69;4978068;28;20029;-81
2023/09/08 08:38:02;;;;;;;6.78;4.18;;;27.60;99.90;;;-144.05;37.56;57167.44;4995723;28;20331;-81
2023/09/08 08:40:29;;;;;;;7.95;4.00;;;;;;;-144.05;37.83;57148.31;4995832;28;20026;-80
2023/09/08 08:42:57;;;;;;;8.40;4.00;;;26.90;99.90;;;-144.05;37.20;57161.06;4995261;28;20030;-80
2023/09/08 08:45:25;;;;;;;7.93;4.35;;;29.30;99.90;;;-144.05;37.42;57186.56;4995600;28;20105;-80
2023/09/08 08:47:53;;;;;;;7.38;4.25;;;29.50;99.90;;;-144.05;37.53;57173.81;4994928;28;20481;-79
2023/09/08 08:50:20;;;;;;;7.13;4.47;;;29.90;99.90;;;-144.05;36.81;57161.06;4995057;28;20045;-81
2023/09/08 08:52:46;;;;;;;6.72;3.95;;;29.70;99.90;;;-144.05;35.17;57231.16;4993598;28;20038;-81
2023/09/08 08:55:16;;;;;;;7.47;3.88;;;;;;;-144.05;35.90;57192.94;4994782;28;20413;-80
2023/09/08 08:57:43;;;;;;;6.32;4.05;;;30.20;99.90;;;-144.05;36.19;57205.66;4977621;28;20109;-79
2023/09/08 09:00:12;;;;;;;6.57;3.72;;;26.70;99.90;;;-144.05;35.77;57214.16;4977271;28;20501;-80
2023/09/08 09:02:43;;;;;;;9.63;4.20;;;30.20;99.90;;;-144.05;35.53;57205.66;4994893;28;20034;-80
2023/09/08 09:05:14;;;;;;;5.90;3.72;;;30.90;99.90;;;-144.05;35.94;57218.41;4994976;28;20022;-80
2023/09/08 09:07:44;;;;;;;8.32;4.20;;;29.20;99.90;;;-144.05;36.20;57216.28;4994738;28;20043;-79
2023/09/08 09:10:11;;;;;;;5.07;3.80;;;30.40;99.90;;;-144.05;35.76;57209.91;4976999;28;20173;-79
2023/09/08 09:12:38;;;;;;;7.65;4.35;;;30.30;99.90;;;-144.05;36.51;57216.28;4994412;28;20034;-80
2023/09/08 09:15:06;;;;;;;6.18;4.32;;;26.60;99.90;;;-144.05;36.26;57175.94;4994838;28;20433;-81
2023/09/08 09:17:36;;;;;;;8.85;3.83;;;30.30;99.90;;;-144.05;35.60;57226.91;4977206;28;20026;-80
2023/09/08 09:20:17;;;;;;;6.50;3.58;;;26.70;99.90;;;-144.05;35.42;57209.91;4976766;28;20034;-77
2023/09/08 09:22:44;;;;;;;5.97;4.00;;;30.80;99.90;;;-144.05;36.97;57231.16;4994470;28;20401;-80
2023/09/08 09:25:28;;;;;;;5.88;3.60;;;30.00;99.90;;;-144.05;36.38;57246.03;4993360;28;20041;-80
2023/09/08 09:28:02;;;;;;;5.75;4.18;;;30.20;99.90;;;-144.05;35.33;57248.16;4993528;28;20031;-80
2023/09/08 09:30:51;;;;;;;6.20;4.13;;;30.80;99.90;;;-144.05;35.24;57282.16;4995085;28;20108;-80
2023/09/08 09:33:17;;;;;;;5.50;4.00;;;26.40;99.90;;;-144.05;35.17;57265.16;4994665;28;20026;-81
2023/09/08 09:35:51;;;;;;;6.18;3.70;;;30.80;99.90;;;-144.05;34.11;57248.16;4994985;28;20026;-79
2023/09/08 09:38:20;;;;;;;6.85;4.05;;;31.40;99.90;;;-144.05;34.79;57233.28;4995038;28;20027;-81
2023/09/08 09:40:48;;;;;;;4.85;3.67;;;31.30;99.90;;;-144.05;35.76;57286.38;4994499;28;20490;-81
2023/09/08 09:43:20;;;;;;;7.78;3.67;;;31.40;99.90;;;-144.05;35.23;57290.63;4992768;28;20474;-81
2023/09/08 09:45:45;;;;;;;4.88;3.90;;;32.00;99.90;;;-144.05;34.57;57277.91;4992912;28;20033;-79
2023/09/08 09:48:12;;;;;;;6.05;3.60;;;;;;;-144.05;34.20;57267.28;4994293;28;20060;-80
2023/09/08 09:50:41;;;;;;;6.82;3.97;;;26.90;98.70;;;-144.05;33.38;57284.28;4994013;28;20041;-81
2023/09/08 09:53:16;;;;;;;7.03;4.07;;;31.20;99.90;;;-144.05;33.71;57263.03;4994223;28;20378;-79
2023/09/08 09:55:45;;;;;;;5.72;3.80;;;31.90;99.70;;;-144.05;33.77;57256.66;4994234;28;20537;-80
2023/09/08 09:58:13;;;;;;;4.43;3.40;;;31.50;99.90;;;-144.05;33.87;57277.91;4995823;28;20100;-81
2023/09/08 10:00:47;;;;;;;4.15;3.50;;;31.60;99.90;;;-144.05;33.46;57316.13;5003135;28;20516;-80
2023/09/08 10:03:14;;;;;;;4.15;3.22;;;31.90;99.80;;;-144.05;33.15;57318.25;4996890;28;20121;-79
2023/09/08 10:05:40;;;;;;;11.10;4.43;;;32.30;99.90;;;-144.05;33.83;57277.91;4995573;28;20401;-78
2023/09/08 10:08:06;;;;;;;6.78;3.67;;;32.20;99.90;;;-144.05;33.77;57333.13;4994437;28;20121;-80
2023/09/08 10:10:36;;;;;;;7.40;3.85;;;27.50;98.00;;;-144.05;33.50;57301.25;4976655;28;20037;-80
2023/09/08 10:13:07;;;;;;;7.30;3.55;;;31.60;99.20;;;-144.05;33.56;57294.88;4994335;28;20026;-78
2023/09/08 10:15:34;;;;;;;5.00;3.42;;;26.70;97.90;;;-144.05;34.01;57258.78;4993666;28;20038;-77
2023/09/08 10:18:05;;;;;;;7.47;3.92;;;30.70;98.90;;;-144.05;34.40;57301.25;4976253;28;20343;-80
2023/09/08 10:20:33;;;;;;;8.23;3.75;;;;;;;-144.05;34.46;57286.38;4993592;28;20038;-80
2023/09/08 10:23:18;;;;;;;5.28;3.33;;;28.30;98.80;;;-144.05;34.51;57258.78;4994130;28;20097;-81